sensor_id;sensor_type;location;lat;lon;timestamp;temperature;humidity
8463;DHT22;4268;52.506;13.462;2022-08-21T00:00:26;20.30;99.90
8463;DHT22;4268;52.506;13.462;2022-08-21T00:02:56;20.30;99.90
8463;DHT22;4268;52.506;13.462;2022-08-21T00:05:22;20.30;99.90
8463;DHT22;4268;52.506;13.462;2022-08-21T00:07:48;20.30;99.90
8463;DHT22;4268;52.506;13.462;2022-08-21T00:10:15;20.30;99.90
8463;DHT22;4268;52.506;13.462;2022-08-21T00:12:41;20.30;99.90
8463;DHT22;4268;52.506;13.462;2022-08-21T00:15:08;20.20;99.90
8463;DHT22;4268;52.506;13.462;2022-08-21T00:17:34;20.20;99.90
8463;DHT22;4268;52.506;13.462;2022-08-21T00:20:01;20.20;99.90
8463;DHT22;4268;52.506;13.462;2022-08-21T00:22:27;20.20;99.90
8463;DHT22;4268;52.506;13.462;2022-08-21T00:24:52;20.20;99.90
8463;DHT22;4268;52.506;13.462;2022-08-21T00:27:18;20.20;99.90
8463;DHT22;4268;52.506;13.462;2022-08-21T00:29:43;20.20;99.90
8463;DHT22;4268;52.506;13.462;2022-08-21T00:32:09;20.20;99.90
8463;DHT22;4268;52.506;13.462;2022-08-21T00:34:34;20.20;99.90
8463;DHT22;4268;52.506;13.462;2022-08-21T00:36:59;20.10;99.90
8463;DHT22;4268;52.506;13.462;2022-08-21T00:39:25;20.10;99.90
8463;DHT22;4268;52.506;13.462;2022-08-21T00:41:51;20.10;99.90
8463;DHT22;4268;52.506;13.462;2022-08-21T00:44:16;20.10;99.90
8463;DHT22;4268;52.506;13.462;2022-08-21T00:46:42;20.10;99.90
8463;DHT22;4268;52.506;13.462;2022-08-21T00:49:10;20.00;99.90
8463;DHT22;4268;52.506;13.462;2022-08-21T00:51:41;20.00;99.90
8463;DHT22;4268;52.506;13.462;2022-08-21T00:54:07;20.00;99.90
8463;DHT22;4268;52.506;13.462;2022-08-21T00:56:34;20.00;99.90
8463;DHT22;4268;52.506;13.462;2022-08-21T00:59:01;19.90;99.90
8463;DHT22;4268;52.506;13.462;2022-08-21T01:01:27;20.00;99.90
8463;DHT22;4268;52.506;13.462;2022-08-21T01:03:53;19.90;99.90
8463;DHT22;4268;52.506;13.462;2022-08-21T01:06:19;19.90;99.90
8463;DHT22;4268;52.506;13.462;2022-08-21T01:08:45;19.90;99.90
8463;DHT22;4268;52.506;13.462;2022-08-21T01:11:10;19.90;99.90
8463;DHT22;4268;52.506;13.462;2022-08-21T01:13:36;19.90;99.90
8463;DHT22;4268;52.506;13.462;2022-08-21T01:16:05;19.90;99.90
8463;DHT22;4268;52.506;13.462;2022-08-21T01:18:33;19.90;99.90
8463;DHT22;4268;52.506;13.462;2022-08-21T01:21:14;19.90;99.90
8463;DHT22;4268;52.506;13.462;2022-08-21T01:23:46;19.90;99.90
8463;DHT22;4268;52.506;13.462;2022-08-21T01:26:13;19.80;99.90
8463;DHT22;4268;52.506;13.462;2022-08-21T01:28:49;19.80;99.90
8463;DHT22;4268;52.506;13.462;2022-08-21T01:31:19;19.80;99.90
8463;DHT22;4268;52.506;13.462;2022-08-21T01:33:47;19.70;99.90
8463;DHT22;4268;52.506;13.462;2022-08-21T01:36:12;19.80;99.90
8463;DHT22;4268;52.506;13.462;2022-08-21T01:38:38;19.80;99.90
8463;DHT22;4268;52.506;13.462;2022-08-21T01:41:03;19.70;99.90
8463;DHT22;4268;52.506;13.462;2022-08-21T01:43:29;19.70;99.90
8463;DHT22;4268;52.506;13.462;2022-08-21T01:45:54;19.70;99.90
8463;DHT22;4268;52.506;13.462;2022-08-21T01:48:20;19.70;99.90
8463;DHT22;4268;52.506;13.462;2022-08-21T01:50:45;19.60;99.90
8463;DHT22;4268;52.506;13.462;2022-08-21T01:53:11;19.60;99.90
8463;DHT22;4268;52.506;13.462;2022-08-21T01:55:36;19.60;99.90
8463;DHT22;4268;52.506;13.462;2022-08-21T01:58:02;19.50;99.90
8463;DHT22;4268;52.506;13.462;2022-08-21T02:00:28;19.60;99.90
8463;DHT22;4268;52.506;13.462;2022-08-21T02:02:54;19.50;99.90
8463;DHT22;4268;52.506;13.462;2022-08-21T02:05:19;19.50;99.90
8463;DHT22;4268;52.506;13.462;2022-08-21T02:07:50;19.50;99.90
8463;DHT22;4268;52.506;13.462;2022-08-21T02:10:27;19.50;99.90
8463;DHT22;4268;52.506;13.462;2022-08-21T02:12:54;19.40;99.90
8463;DHT22;4268;52.506;13.462;2022-08-21T02:15:20;19.40;99.90
8463;DHT22;4268;52.506;13.462;2022-08-21T02:17:49;19.40;99.90
8463;DHT22;4268;52.506;13.462;2022-08-21T02:20:22;19.40;99.90
8463;DHT22;4268;52.506;13.462;2022-08-21T02:22:48;19.30;99.90
8463;DHT22;4268;52.506;13.462;2022-08-21T02:25:15;19.30;99.90
8463;DHT22;4268;52.506;13.462;2022-08-21T02:27:42;19.20;99.90
8463;DHT22;4268;52.506;13.462;2022-08-21T02:30:12;19.30;99.90
8463;DHT22;4268;52.506;13.462;2022-08-21T02:32:39;19.20;99.90
8463;DHT22;4268;52.506;13.462;2022-08-21T02:35:06;19.20;99.90
8463;DHT22;4268;52.506;13.462;2022-08-21T02:37:32;19.20;99.90
8463;DHT22;4268;52.506;13.462;2022-08-21T02:39:59;19.10;99.90
8463;DHT22;4268;52.506;13.462;2022-08-21T02:42:25;19.20;99.90
8463;DHT22;4268;52.506;13.462;2022-08-21T02:44:50;19.10;99.90
8463;DHT22;4268;52.506;13.462;2022-08-21T02:47:16;19.10;99.90
8463;DHT22;4268;52.506;13.462;2022-08-21T02:49:41;19.10;99.90
8463;DHT22;4268;52.506;13.462;2022-08-21T02:52:07;19.00;99.90
8463;DHT22;4268;52.506;13.462;2022-08-21T02:54:32;19.00;99.90
8463;DHT22;4268;52.506;13.462;2022-08-21T02:56:58;19.00;99.90
8463;DHT22;4268;52.506;13.462;2022-08-21T02:59:23;19.00;99.90
8463;DHT22;4268;52.506;13.462;2022-08-21T03:01:49;18.90;99.90
8463;DHT22;4268;52.506;13.462;2022-08-21T03:04:14;18.90;99.90
8463;DHT22;4268;52.506;13.462;2022-08-21T03:06:40;18.90;99.90
8463;DHT22;4268;52.506;13.462;2022-08-21T03:09:05;18.80;99.90
8463;DHT22;4268;52.506;13.462;2022-08-21T03:11:31;18.80;99.90
8463;DHT22;4268;52.506;13.462;2022-08-21T03:13:57;18.80;99.90
8463;DHT22;4268;52.506;13.462;2022-08-21T03:16:22;18.90;99.90
8463;DHT22;4268;52.506;13.462;2022-08-21T03:18:47;18.80;99.90
8463;DHT22;4268;52.506;13.462;2022-08-21T03:21:13;18.80;99.90
8463;DHT22;4268;52.506;13.462;2022-08-21T03:23:39;18.70;99.90
8463;DHT22;4268;52.506;13.462;2022-08-21T03:26:07;18.70;99.90
8463;DHT22;4268;52.506;13.462;2022-08-21T03:28:33;18.80;99.90
8463;DHT22;4268;52.506;13.462;2022-08-21T03:30:59;18.70;99.90
8463;DHT22;4268;52.506;13.462;2022-08-21T03:33:24;18.70;99.90
8463;DHT22;4268;52.506;13.462;2022-08-21T03:36:03;18.70;99.90
8463;DHT22;4268;52.506;13.462;2022-08-21T03:38:30;18.60;99.90
8463;DHT22;4268;52.506;13.462;2022-08-21T03:40:56;18.60;99.90
8463;DHT22;4268;52.506;13.462;2022-08-21T03:43:21;18.60;99.90
8463;DHT22;4268;52.506;13.462;2022-08-21T03:45:47;18.60;99.90
8463;DHT22;4268;52.506;13.462;2022-08-21T03:48:13;18.60;99.90
8463;DHT22;4268;52.506;13.462;2022-08-21T03:50:40;18.60;99.90
8463;DHT22;4268;52.506;13.462;2022-08-21T03:53:06;18.50;99.90
8463;DHT22;4268;52.506;13.462;2022-08-21T03:55:32;18.50;99.90
8463;DHT22;4268;52.506;13.462;2022-08-21T03:57:57;18.50;99.90
8463;DHT22;4268;52.506;13.462;2022-08-21T04:00:24;18.50;99.90
8463;DHT22;4268;52.506;13.462;2022-08-21T04:02:49;18.50;99.90
8463;DHT22;4268;52.506;13.462;2022-08-21T04:05:16;18.50;99.90
8463;DHT22;4268;52.506;13.462;2022-08-21T04:07:56;18.50;99.90
8463;DHT22;4268;52.506;13.462;2022-08-21T04:10:23;18.50;99.90
8463;DHT22;4268;52.506;13.462;2022-08-21T04:12:50;18.40;99.90
8463;DHT22;4268;52.506;13.462;2022-08-21T04:15:16;18.40;99.90
8463;DHT22;4268;52.506;13.462;2022-08-21T04:17:42;18.40;99.90
8463;DHT22;4268;52.506;13.462;2022-08-21T04:20:08;18.40;99.90
8463;DHT22;4268;52.506;13.462;2022-08-21T04:22:33;18.40;99.90
8463;DHT22;4268;52.506;13.462;2022-08-21T04:24:59;18.40;99.90
8463;DHT22;4268;52.506;13.462;2022-08-21T04:27:24;18.40;99.90
8463;DHT22;4268;52.506;13.462;2022-08-21T04:29:50;18.40;99.90
8463;DHT22;4268;52.506;13.462;2022-08-21T04:32:22;18.40;99.90
8463;DHT22;4268;52.506;13.462;2022-08-21T04:34:48;18.40;99.90
8463;DHT22;4268;52.506;13.462;2022-08-21T04:37:14;18.30;99.90
8463;DHT22;4268;52.506;13.462;2022-08-21T04:39:41;18.40;99.90
8463;DHT22;4268;52.506;13.462;2022-08-21T04:42:06;18.40;99.90
8463;DHT22;4268;52.506;13.462;2022-08-21T04:44:33;18.30;99.90
8463;DHT22;4268;52.506;13.462;2022-08-21T04:46:58;18.40;99.90
8463;DHT22;4268;52.506;13.462;2022-08-21T04:49:23;18.40;99.90
8463;DHT22;4268;52.506;13.462;2022-08-21T04:51:49;18.40;99.90
8463;DHT22;4268;52.506;13.462;2022-08-21T04:54:20;18.40;99.90
8463;DHT22;4268;52.506;13.462;2022-08-21T04:57:02;18.40;99.90
8463;DHT22;4268;52.506;13.462;2022-08-21T04:59:38;18.40;99.90
8463;DHT22;4268;52.506;13.462;2022-08-21T05:02:05;18.40;99.90
8463;DHT22;4268;52.506;13.462;2022-08-21T05:04:33;18.40;99.90
8463;DHT22;4268;52.506;13.462;2022-08-21T05:07:02;18.40;99.90
8463;DHT22;4268;52.506;13.462;2022-08-21T05:09:28;18.40;99.90
8463;DHT22;4268;52.506;13.462;2022-08-21T05:11:54;18.40;99.90
8463;DHT22;4268;52.506;13.462;2022-08-21T05:14:20;18.40;99.90
8463;DHT22;4268;52.506;13.462;2022-08-21T05:16:46;18.40;99.90
8463;DHT22;4268;52.506;13.462;2022-08-21T05:19:12;18.50;99.90
8463;DHT22;4268;52.506;13.462;2022-08-21T05:21:43;18.50;99.90
8463;DHT22;4268;52.506;13.462;2022-08-21T05:24:09;18.50;99.90
8463;DHT22;4268;52.506;13.462;2022-08-21T05:26:35;18.50;99.90
8463;DHT22;4268;52.506;13.462;2022-08-21T05:29:02;18.50;99.90
8463;DHT22;4268;52.506;13.462;2022-08-21T05:31:28;18.60;99.90
8463;DHT22;4268;52.506;13.462;2022-08-21T05:33:53;18.60;99.90
8463;DHT22;4268;52.506;13.462;2022-08-21T05:36:19;18.60;99.90
8463;DHT22;4268;52.506;13.462;2022-08-21T05:38:45;18.70;99.90
8463;DHT22;4268;52.506;13.462;2022-08-21T05:41:10;18.60;99.90
8463;DHT22;4268;52.506;13.462;2022-08-21T05:43:36;18.60;99.90
8463;DHT22;4268;52.506;13.462;2022-08-21T05:46:06;18.70;99.90
8463;DHT22;4268;52.506;13.462;2022-08-21T05:48:32;18.70;99.90
8463;DHT22;4268;52.506;13.462;2022-08-21T05:51:03;18.70;99.90
8463;DHT22;4268;52.506;13.462;2022-08-21T05:53:29;18.70;99.90
8463;DHT22;4268;52.506;13.462;2022-08-21T05:55:54;18.70;99.90
8463;DHT22;4268;52.506;13.462;2022-08-21T05:58:21;18.80;99.90
8463;DHT22;4268;52.506;13.462;2022-08-21T06:00:48;18.70;99.90
8463;DHT22;4268;52.506;13.462;2022-08-21T06:03:18;18.80;99.90
8463;DHT22;4268;52.506;13.462;2022-08-21T06:05:44;18.80;99.90
8463;DHT22;4268;52.506;13.462;2022-08-21T06:08:11;18.80;99.90
8463;DHT22;4268;52.506;13.462;2022-08-21T06:10:36;18.90;99.90
8463;DHT22;4268;52.506;13.462;2022-08-21T06:13:02;18.90;99.90
8463;DHT22;4268;52.506;13.462;2022-08-21T06:15:28;18.90;99.90
8463;DHT22;4268;52.506;13.462;2022-08-21T06:17:54;18.90;99.90
8463;DHT22;4268;52.506;13.462;2022-08-21T06:20:20;18.90;99.90
8463;DHT22;4268;52.506;13.462;2022-08-21T06:22:46;19.00;99.90
8463;DHT22;4268;52.506;13.462;2022-08-21T06:25:12;19.00;99.90
8463;DHT22;4268;52.506;13.462;2022-08-21T06:27:37;19.10;99.90
8463;DHT22;4268;52.506;13.462;2022-08-21T06:30:05;19.10;99.90
8463;DHT22;4268;52.506;13.462;2022-08-21T06:32:30;19.20;99.90
8463;DHT22;4268;52.506;13.462;2022-08-21T06:34:56;19.30;99.90
8463;DHT22;4268;52.506;13.462;2022-08-21T06:37:22;19.40;99.90
8463;DHT22;4268;52.506;13.462;2022-08-21T06:39:47;19.40;99.90
8463;DHT22;4268;52.506;13.462;2022-08-21T06:42:15;19.40;99.90
8463;DHT22;4268;52.506;13.462;2022-08-21T06:44:41;19.40;99.90
8463;DHT22;4268;52.506;13.462;2022-08-21T06:47:07;19.60;99.90
8463;DHT22;4268;52.506;13.462;2022-08-21T06:49:32;19.70;99.90
8463;DHT22;4268;52.506;13.462;2022-08-21T06:51:58;19.70;99.90
8463;DHT22;4268;52.506;13.462;2022-08-21T06:54:23;19.80;99.90
8463;DHT22;4268;52.506;13.462;2022-08-21T06:56:48;19.90;99.90
8463;DHT22;4268;52.506;13.462;2022-08-21T06:59:14;19.90;99.90
8463;DHT22;4268;52.506;13.462;2022-08-21T07:01:40;20.00;99.90
8463;DHT22;4268;52.506;13.462;2022-08-21T07:04:06;20.10;99.90
8463;DHT22;4268;52.506;13.462;2022-08-21T07:06:32;20.20;99.90
8463;DHT22;4268;52.506;13.462;2022-08-21T07:08:58;20.40;99.90
8463;DHT22;4268;52.506;13.462;2022-08-21T07:11:24;20.60;99.90
8463;DHT22;4268;52.506;13.462;2022-08-21T07:13:51;20.70;99.90
8463;DHT22;4268;52.506;13.462;2022-08-21T07:16:18;20.90;99.90
8463;DHT22;4268;52.506;13.462;2022-08-21T07:18:44;21.10;99.90
8463;DHT22;4268;52.506;13.462;2022-08-21T07:21:10;21.30;99.90
8463;DHT22;4268;52.506;13.462;2022-08-21T07:23:40;21.50;99.90
8463;DHT22;4268;52.506;13.462;2022-08-21T07:26:07;21.60;99.90
8463;DHT22;4268;52.506;13.462;2022-08-21T07:28:32;21.70;99.90
8463;DHT22;4268;52.506;13.462;2022-08-21T07:30:59;21.70;99.90
8463;DHT22;4268;52.506;13.462;2022-08-21T07:33:27;21.70;99.90
8463;DHT22;4268;52.506;13.462;2022-08-21T07:35:53;21.80;99.90
8463;DHT22;4268;52.506;13.462;2022-08-21T07:38:18;21.80;99.90
8463;DHT22;4268;52.506;13.462;2022-08-21T07:40:45;21.90;99.90
8463;DHT22;4268;52.506;13.462;2022-08-21T07:43:11;21.80;99.90
8463;DHT22;4268;52.506;13.462;2022-08-21T07:45:37;21.90;99.90
8463;DHT22;4268;52.506;13.462;2022-08-21T07:48:03;21.90;99.90
8463;DHT22;4268;52.506;13.462;2022-08-21T07:50:28;22.00;99.90
8463;DHT22;4268;52.506;13.462;2022-08-21T07:52:54;22.10;99.90
8463;DHT22;4268;52.506;13.462;2022-08-21T07:55:21;22.00;99.90
8463;DHT22;4268;52.506;13.462;2022-08-21T07:57:47;22.10;99.90
8463;DHT22;4268;52.506;13.462;2022-08-21T08:00:16;22.10;99.90
8463;DHT22;4268;52.506;13.462;2022-08-21T08:02:45;22.20;99.90
8463;DHT22;4268;52.506;13.462;2022-08-21T08:05:11;22.30;99.90
8463;DHT22;4268;52.506;13.462;2022-08-21T08:07:37;22.30;99.90
8463;DHT22;4268;52.506;13.462;2022-08-21T08:10:05;22.40;99.90
8463;DHT22;4268;52.506;13.462;2022-08-21T08:12:32;22.60;99.60
8463;DHT22;4268;52.506;13.462;2022-08-21T08:14:59;22.60;99.40
8463;DHT22;4268;52.506;13.462;2022-08-21T08:17:26;22.70;99.20
8463;DHT22;4268;52.506;13.462;2022-08-21T08:19:52;22.90;98.70
8463;DHT22;4268;52.506;13.462;2022-08-21T08:22:20;22.90;98.40
8463;DHT22;4268;52.506;13.462;2022-08-21T08:24:47;23.10;98.50
8463;DHT22;4268;52.506;13.462;2022-08-21T08:27:14;23.20;98.10
8463;DHT22;4268;52.506;13.462;2022-08-21T08:29:40;23.30;97.80
8463;DHT22;4268;52.506;13.462;2022-08-21T08:32:06;23.40;97.10
8463;DHT22;4268;52.506;13.462;2022-08-21T08:34:38;23.60;96.90
8463;DHT22;4268;52.506;13.462;2022-08-21T08:37:04;23.70;95.60
8463;DHT22;4268;52.506;13.462;2022-08-21T08:39:30;23.60;95.50
8463;DHT22;4268;52.506;13.462;2022-08-21T08:42:06;23.60;95.30
8463;DHT22;4268;52.506;13.462;2022-08-21T08:44:32;23.60;95.10
8463;DHT22;4268;52.506;13.462;2022-08-21T08:46:59;23.40;95.00
8463;DHT22;4268;52.506;13.462;2022-08-21T08:49:37;23.30;95.20
8463;DHT22;4268;52.506;13.462;2022-08-21T08:52:20;23.10;95.60
8463;DHT22;4268;52.506;13.462;2022-08-21T08:54:52;23.00;95.20
8463;DHT22;4268;52.506;13.462;2022-08-21T08:57:22;22.80;95.50
8463;DHT22;4268;52.506;13.462;2022-08-21T08:59:52;22.80;95.20
8463;DHT22;4268;52.506;13.462;2022-08-21T09:02:20;22.80;95.70
8463;DHT22;4268;52.506;13.462;2022-08-21T09:04:48;22.70;95.50
8463;DHT22;4268;52.506;13.462;2022-08-21T09:10:10;22.80;96.10
8463;DHT22;4268;52.506;13.462;2022-08-21T09:12:45;22.90;96.00
8463;DHT22;4268;52.506;13.462;2022-08-21T09:15:33;22.90;95.70
8463;DHT22;4268;52.506;13.462;2022-08-21T09:23:25;22.80;94.20
8463;DHT22;4268;52.506;13.462;2022-08-21T09:26:13;22.80;94.00
8463;DHT22;4268;52.506;13.462;2022-08-21T09:28:40;22.80;93.90
8463;DHT22;4268;52.506;13.462;2022-08-21T09:31:30;22.90;94.20
8463;DHT22;4268;52.506;13.462;2022-08-21T09:34:02;22.90;93.70
8463;DHT22;4268;52.506;13.462;2022-08-21T09:36:40;22.80;93.50
8463;DHT22;4268;52.506;13.462;2022-08-21T09:39:08;22.80;93.20
8463;DHT22;4268;52.506;13.462;2022-08-21T09:41:36;22.80;93.30
8463;DHT22;4268;52.506;13.462;2022-08-21T09:44:03;22.90;93.50
8463;DHT22;4268;52.506;13.462;2022-08-21T09:46:29;22.90;93.50
8463;DHT22;4268;52.506;13.462;2022-08-21T09:48:58;22.80;93.90
8463;DHT22;4268;52.506;13.462;2022-08-21T09:51:35;22.90;93.80
8463;DHT22;4268;52.506;13.462;2022-08-21T09:56:36;22.90;93.00
8463;DHT22;4268;52.506;13.462;2022-08-21T09:59:30;22.90;92.70
8463;DHT22;4268;52.506;13.462;2022-08-21T10:01:58;23.00;93.20
8463;DHT22;4268;52.506;13.462;2022-08-21T10:04:34;23.00;93.40
8463;DHT22;4268;52.506;13.462;2022-08-21T10:07:12;23.10;92.90
8463;DHT22;4268;52.506;13.462;2022-08-21T10:09:39;23.10;91.70
8463;DHT22;4268;52.506;13.462;2022-08-21T10:12:23;23.20;92.00
8463;DHT22;4268;52.506;13.462;2022-08-21T10:18:13;23.30;91.90
8463;DHT22;4268;52.506;13.462;2022-08-21T10:20:52;23.30;91.80
8463;DHT22;4268;52.506;13.462;2022-08-21T10:23:51;23.30;91.60
8463;DHT22;4268;52.506;13.462;2022-08-21T10:26:39;23.30;91.60
8463;DHT22;4268;52.506;13.462;2022-08-21T10:29:28;23.30;91.60
8463;DHT22;4268;52.506;13.462;2022-08-21T10:34:54;23.40;90.60
8463;DHT22;4268;52.506;13.462;2022-08-21T10:43:59;23.50;90.10
8463;DHT22;4268;52.506;13.462;2022-08-21T10:48:59;23.60;90.00
8463;DHT22;4268;52.506;13.462;2022-08-21T10:51:43;23.70;90.10
8463;DHT22;4268;52.506;13.462;2022-08-21T10:56:47;23.80;90.00
8463;DHT22;4268;52.506;13.462;2022-08-21T10:59:38;23.90;89.50
8463;DHT22;4268;52.506;13.462;2022-08-21T11:05:33;23.80;89.40
8463;DHT22;4268;52.506;13.462;2022-08-21T11:08:19;23.80;88.80
8463;DHT22;4268;52.506;13.462;2022-08-21T11:10:52;23.90;88.60
8463;DHT22;4268;52.506;13.462;2022-08-21T11:13:37;23.90;88.30
8463;DHT22;4268;52.506;13.462;2022-08-21T11:16:17;23.90;87.80
8463;DHT22;4268;52.506;13.462;2022-08-21T11:19:11;24.00;87.90
8463;DHT22;4268;52.506;13.462;2022-08-21T11:21:41;24.10;87.50
8463;DHT22;4268;52.506;13.462;2022-08-21T11:24:35;24.10;87.60
8463;DHT22;4268;52.506;13.462;2022-08-21T11:29:55;24.20;86.30
8463;DHT22;4268;52.506;13.462;2022-08-21T11:40:31;24.40;81.90
8463;DHT22;4268;52.506;13.462;2022-08-21T11:45:54;24.40;78.50
8463;DHT22;4268;52.506;13.462;2022-08-21T11:50:54;24.40;78.20
8463;DHT22;4268;52.506;13.462;2022-08-21T11:53:24;24.50;75.40
8463;DHT22;4268;52.506;13.462;2022-08-21T11:56:00;24.50;75.50
8463;DHT22;4268;52.506;13.462;2022-08-21T11:58:39;24.70;74.70
8463;DHT22;4268;52.506;13.462;2022-08-21T12:01:16;24.80;74.40
8463;DHT22;4268;52.506;13.462;2022-08-21T12:04:07;24.90;71.80
8463;DHT22;4268;52.506;13.462;2022-08-21T12:06:39;25.10;71.70
8463;DHT22;4268;52.506;13.462;2022-08-21T12:09:33;25.10;71.40
8463;DHT22;4268;52.506;13.462;2022-08-21T12:14:43;25.00;70.10
8463;DHT22;4268;52.506;13.462;2022-08-21T12:17:23;25.00;70.90
8463;DHT22;4268;52.506;13.462;2022-08-21T12:20:18;25.00;70.70
8463;DHT22;4268;52.506;13.462;2022-08-21T12:23:03;25.00;69.70
8463;DHT22;4268;52.506;13.462;2022-08-21T12:25:44;25.00;68.80
8463;DHT22;4268;52.506;13.462;2022-08-21T12:28:21;24.90;70.10
8463;DHT22;4268;52.506;13.462;2022-08-21T12:30:47;25.00;71.10
8463;DHT22;4268;52.506;13.462;2022-08-21T12:33:23;25.10;68.10
8463;DHT22;4268;52.506;13.462;2022-08-21T12:35:53;25.10;68.20
8463;DHT22;4268;52.506;13.462;2022-08-21T12:38:28;25.20;68.70
8463;DHT22;4268;52.506;13.462;2022-08-21T12:41:03;25.30;68.50
8463;DHT22;4268;52.506;13.462;2022-08-21T12:43:34;25.30;68.70
8463;DHT22;4268;52.506;13.462;2022-08-21T12:46:01;25.50;68.30
8463;DHT22;4268;52.506;13.462;2022-08-21T12:48:45;25.50;68.50
8463;DHT22;4268;52.506;13.462;2022-08-21T12:51:23;25.50;68.90
8463;DHT22;4268;52.506;13.462;2022-08-21T12:53:58;25.40;69.70
8463;DHT22;4268;52.506;13.462;2022-08-21T12:56:28;25.40;69.40
8463;DHT22;4268;52.506;13.462;2022-08-21T12:58:56;25.40;70.60
8463;DHT22;4268;52.506;13.462;2022-08-21T13:01:29;25.40;70.60
8463;DHT22;4268;52.506;13.462;2022-08-21T13:03:58;25.40;70.90
8463;DHT22;4268;52.506;13.462;2022-08-21T13:06:26;25.50;70.20
8463;DHT22;4268;52.506;13.462;2022-08-21T13:08:58;25.50;68.00
8463;DHT22;4268;52.506;13.462;2022-08-21T13:11:28;25.30;66.50
8463;DHT22;4268;52.506;13.462;2022-08-21T13:13:54;25.20;65.30
8463;DHT22;4268;52.506;13.462;2022-08-21T13:16:27;25.20;66.70
8463;DHT22;4268;52.506;13.462;2022-08-21T13:19:02;25.10;67.70
8463;DHT22;4268;52.506;13.462;2022-08-21T13:21:40;25.00;68.30
8463;DHT22;4268;52.506;13.462;2022-08-21T13:24:21;25.00;69.10
8463;DHT22;4268;52.506;13.462;2022-08-21T13:26:47;24.90;69.40
8463;DHT22;4268;52.506;13.462;2022-08-21T13:29:17;25.00;69.50
8463;DHT22;4268;52.506;13.462;2022-08-21T13:31:49;24.80;68.60
8463;DHT22;4268;52.506;13.462;2022-08-21T13:34:15;24.90;69.50
8463;DHT22;4268;52.506;13.462;2022-08-21T13:36:43;24.90;70.10
8463;DHT22;4268;52.506;13.462;2022-08-21T13:39:14;24.90;70.50
8463;DHT22;4268;52.506;13.462;2022-08-21T13:41:43;24.90;70.80
8463;DHT22;4268;52.506;13.462;2022-08-21T13:44:35;24.90;69.70
8463;DHT22;4268;52.506;13.462;2022-08-21T13:47:03;25.00;69.80
8463;DHT22;4268;52.506;13.462;2022-08-21T13:49:33;25.00;69.80
8463;DHT22;4268;52.506;13.462;2022-08-21T13:51:59;25.00;70.50
8463;DHT22;4268;52.506;13.462;2022-08-21T13:54:29;25.00;70.30
8463;DHT22;4268;52.506;13.462;2022-08-21T13:56:58;24.90;70.60
8463;DHT22;4268;52.506;13.462;2022-08-21T13:59:32;24.90;70.40
8463;DHT22;4268;52.506;13.462;2022-08-21T14:04:33;24.90;71.70
8463;DHT22;4268;52.506;13.462;2022-08-21T14:07:00;24.90;72.10
8463;DHT22;4268;52.506;13.462;2022-08-21T14:12:00;24.70;71.50
8463;DHT22;4268;52.506;13.462;2022-08-21T14:14:30;24.60;72.20
8463;DHT22;4268;52.506;13.462;2022-08-21T14:17:02;24.50;72.80
8463;DHT22;4268;52.506;13.462;2022-08-21T14:19:43;24.40;73.50
8463;DHT22;4268;52.506;13.462;2022-08-21T14:22:45;24.30;73.90
8463;DHT22;4268;52.506;13.462;2022-08-21T14:27:55;24.20;75.90
8463;DHT22;4268;52.506;13.462;2022-08-21T14:30:34;24.30;76.50
8463;DHT22;4268;52.506;13.462;2022-08-21T14:33:02;24.30;76.50
8463;DHT22;4268;52.506;13.462;2022-08-21T14:35:28;24.30;77.40
8463;DHT22;4268;52.506;13.462;2022-08-21T14:37:54;24.30;77.70
8463;DHT22;4268;52.506;13.462;2022-08-21T14:40:22;24.30;76.00
8463;DHT22;4268;52.506;13.462;2022-08-21T14:42:48;24.10;76.20
8463;DHT22;4268;52.506;13.462;2022-08-21T14:45:41;24.10;76.80
8463;DHT22;4268;52.506;13.462;2022-08-21T14:48:07;24.00;77.00
8463;DHT22;4268;52.506;13.462;2022-08-21T14:50:33;24.00;76.90
8463;DHT22;4268;52.506;13.462;2022-08-21T14:52:59;23.90;76.90
8463;DHT22;4268;52.506;13.462;2022-08-21T14:55:26;23.90;77.60
8463;DHT22;4268;52.506;13.462;2022-08-21T14:57:53;23.80;77.70
8463;DHT22;4268;52.506;13.462;2022-08-21T15:00:21;23.90;77.90
8463;DHT22;4268;52.506;13.462;2022-08-21T15:02:48;23.80;78.00
8463;DHT22;4268;52.506;13.462;2022-08-21T15:05:14;23.80;78.30
8463;DHT22;4268;52.506;13.462;2022-08-21T15:07:40;23.80;79.00
8463;DHT22;4268;52.506;13.462;2022-08-21T15:10:08;23.70;78.40
8463;DHT22;4268;52.506;13.462;2022-08-21T15:12:34;23.70;78.70
8463;DHT22;4268;52.506;13.462;2022-08-21T15:15:00;23.70;79.30
8463;DHT22;4268;52.506;13.462;2022-08-21T15:17:25;23.70;79.40
8463;DHT22;4268;52.506;13.462;2022-08-21T15:19:51;23.60;79.20
8463;DHT22;4268;52.506;13.462;2022-08-21T15:22:16;23.60;78.80
8463;DHT22;4268;52.506;13.462;2022-08-21T15:24:42;23.60;79.30
8463;DHT22;4268;52.506;13.462;2022-08-21T15:27:08;23.60;79.90
8463;DHT22;4268;52.506;13.462;2022-08-21T15:29:35;23.50;80.10
8463;DHT22;4268;52.506;13.462;2022-08-21T15:32:24;23.60;80.80
8463;DHT22;4268;52.506;13.462;2022-08-21T15:34:50;23.50;81.10
8463;DHT22;4268;52.506;13.462;2022-08-21T15:37:16;23.50;80.60
8463;DHT22;4268;52.506;13.462;2022-08-21T15:39:41;23.40;80.10
8463;DHT22;4268;52.506;13.462;2022-08-21T15:42:07;23.50;80.30
8463;DHT22;4268;52.506;13.462;2022-08-21T15:44:33;23.50;80.60
8463;DHT22;4268;52.506;13.462;2022-08-21T15:46:59;23.50;81.20
8463;DHT22;4268;52.506;13.462;2022-08-21T15:49:25;23.40;80.90
8463;DHT22;4268;52.506;13.462;2022-08-21T15:51:50;23.40;80.80
8463;DHT22;4268;52.506;13.462;2022-08-21T15:54:16;23.40;80.90
8463;DHT22;4268;52.506;13.462;2022-08-21T15:56:44;23.40;81.00
8463;DHT22;4268;52.506;13.462;2022-08-21T15:59:18;23.40;81.60
8463;DHT22;4268;52.506;13.462;2022-08-21T16:01:45;23.30;81.70
8463;DHT22;4268;52.506;13.462;2022-08-21T16:04:18;23.30;83.60
8463;DHT22;4268;52.506;13.462;2022-08-21T16:06:44;23.30;83.60
8463;DHT22;4268;52.506;13.462;2022-08-21T16:09:10;23.20;84.50
8463;DHT22;4268;52.506;13.462;2022-08-21T16:11:35;23.20;85.90
8463;DHT22;4268;52.506;13.462;2022-08-21T16:14:01;23.10;84.40
8463;DHT22;4268;52.506;13.462;2022-08-21T16:16:26;23.00;85.50
8463;DHT22;4268;52.506;13.462;2022-08-21T16:18:53;22.90;87.90
8463;DHT22;4268;52.506;13.462;2022-08-21T16:21:19;22.90;86.40
8463;DHT22;4268;52.506;13.462;2022-08-21T16:23:44;22.90;87.30
8463;DHT22;4268;52.506;13.462;2022-08-21T16:26:11;22.80;86.90
8463;DHT22;4268;52.506;13.462;2022-08-21T16:28:41;22.80;87.80
8463;DHT22;4268;52.506;13.462;2022-08-21T16:31:08;22.80;87.40
8463;DHT22;4268;52.506;13.462;2022-08-21T16:33:41;22.80;87.70
8463;DHT22;4268;52.506;13.462;2022-08-21T16:36:08;22.70;87.00
8463;DHT22;4268;52.506;13.462;2022-08-21T16:38:35;22.70;86.20
8463;DHT22;4268;52.506;13.462;2022-08-21T16:41:03;22.70;86.70
8463;DHT22;4268;52.506;13.462;2022-08-21T16:43:29;22.70;87.20
8463;DHT22;4268;52.506;13.462;2022-08-21T16:45:56;22.60;87.30
8463;DHT22;4268;52.506;13.462;2022-08-21T16:48:23;22.50;87.40
8463;DHT22;4268;52.506;13.462;2022-08-21T16:50:49;22.60;87.40
8463;DHT22;4268;52.506;13.462;2022-08-21T16:53:15;22.50;87.00
8463;DHT22;4268;52.506;13.462;2022-08-21T16:55:42;22.50;86.50